createdAt,value
2019-03-21T00:02:01.058Z,36.50
2019-03-21T00:04:40.304Z,33.10
2019-03-21T00:07:19.354Z,33.10
2019-03-21T00:10:20.494Z,28.50
2019-03-21T00:12:59.811Z,31.30
2019-03-21T00:15:43.391Z,32.87
2019-03-21T00:18:22.438Z,29.67
2019-03-21T00:21:01.504Z,30.97
2019-03-21T00:23:40.544Z,32.80
2019-03-21T00:26:19.566Z,30.53
2019-03-21T00:28:58.602Z,36.00
2019-03-21T00:31:37.663Z,32.67
2019-03-21T00:34:16.677Z,34.30
2019-03-21T00:36:55.714Z,32.23
2019-03-21T00:39:34.730Z,30.80
2019-03-21T00:42:14.439Z,34.80
2019-03-21T00:44:53.457Z,28.50
2019-03-21T00:47:32.505Z,30.63
2019-03-21T00:50:13.601Z,28.93
2019-03-21T00:52:54.737Z,35.63
2019-03-21T00:55:34.829Z,28.93
2019-03-21T00:58:14.023Z,32.80
2019-03-21T01:00:55.891Z,29.73
2019-03-21T01:03:34.996Z,30.07
2019-03-21T01:06:13.984Z,30.77
2019-03-21T01:11:36.799Z,28.03
2019-03-21T01:14:15.798Z,32.43
2019-03-21T01:16:54.801Z,28.33
2019-03-21T01:19:33.857Z,33.90
2019-03-21T01:22:12.902Z,26.30
2019-03-21T01:24:51.913Z,31.77
2019-03-21T01:27:30.961Z,27.60
2019-03-21T01:30:11.689Z,30.87
2019-03-21T01:32:50.757Z,31.03
2019-03-21T01:35:29.764Z,29.67
2019-03-21T01:38:08.832Z,28.13
2019-03-21T01:40:49.381Z,29.03
2019-03-21T01:43:28.448Z,28.87
2019-03-21T01:46:10.371Z,29.10
2019-03-21T01:48:49.441Z,29.63
2019-03-21T01:51:28.491Z,33.47
2019-03-21T01:54:07.724Z,30.07
2019-03-21T01:56:46.760Z,27.53
2019-03-21T01:59:25.816Z,30.43
2019-03-21T02:02:04.828Z,23.53
2019-03-21T02:04:43.857Z,27.23
2019-03-21T02:07:22.927Z,25.30
2019-03-21T02:10:01.944Z,30.07
2019-03-21T02:12:41.029Z,29.50
2019-03-21T02:15:20.927Z,30.40
2019-03-21T02:17:59.969Z,31.53
2019-03-21T02:20:38.976Z,24.37
2019-03-21T02:23:18.000Z,32.23
2019-03-21T02:25:57.019Z,29.80
2019-03-21T02:28:36.055Z,27.83
2019-03-21T02:31:15.072Z,30.47
2019-03-21T02:33:54.125Z,30.27
2019-03-21T02:36:33.155Z,23.83
2019-03-21T02:39:12.341Z,31.30
2019-03-21T02:41:51.353Z,28.63
2019-03-21T02:44:30.385Z,28.50
2019-03-21T02:49:53.517Z,26.43
2019-03-21T02:52:32.570Z,29.83
2019-03-21T02:55:11.917Z,25.53
2019-03-21T02:57:50.943Z,29.27
2019-03-21T03:00:30.838Z,28.57
2019-03-21T03:03:09.941Z,26.30
2019-03-21T03:05:48.951Z,26.10
2019-03-21T03:08:28.031Z,30.37
2019-03-21T03:11:10.597Z,29.90
2019-03-21T03:13:48.653Z,28.93
2019-03-21T03:16:27.694Z,27.70
2019-03-21T03:19:06.925Z,28.30
2019-03-21T03:21:45.941Z,33.47
2019-03-21T03:24:27.602Z,26.20
2019-03-21T03:27:06.619Z,26.13
2019-03-21T03:29:45.680Z,26.33
2019-03-21T03:32:24.699Z,27.20
2019-03-21T03:35:03.760Z,27.17
2019-03-21T03:37:42.841Z,24.33
2019-03-21T03:40:26.694Z,25.93
2019-03-21T03:43:05.785Z,22.33
2019-03-21T03:45:45.115Z,30.93
2019-03-21T03:48:24.153Z,27.80
2019-03-21T03:51:03.168Z,28.53
2019-03-21T03:53:42.817Z,35.67
2019-03-21T03:56:21.229Z,31.40
2019-03-21T03:59:00.622Z,28.27
2019-03-21T04:01:39.687Z,27.00
2019-03-21T04:04:18.728Z,28.80
2019-03-21T04:06:57.730Z,26.07
2019-03-21T04:12:21.347Z,28.43
2019-03-21T04:15:00.395Z,25.47
2019-03-21T04:17:39.394Z,25.73
2019-03-21T04:20:20.400Z,23.87
2019-03-21T04:22:59.607Z,30.63
2019-03-21T04:25:43.609Z,32.60
2019-03-21T04:28:22.639Z,31.77
2019-03-21T04:31:03.587Z,30.50
2019-03-21T04:33:42.904Z,31.23
2019-03-21T04:36:21.908Z,27.77
2019-03-21T04:39:00.947Z,29.03
2019-03-21T04:41:40.384Z,28.00
2019-03-21T04:44:19.425Z,31.13
2019-03-21T04:46:58.432Z,27.27
2019-03-21T04:49:37.494Z,31.40
2019-03-21T04:52:16.521Z,26.73
2019-03-21T04:54:55.579Z,27.07
2019-03-21T04:57:34.605Z,33.70
2019-03-21T05:00:20.874Z,25.93
2019-03-21T05:03:02.024Z,24.70
2019-03-21T05:05:41.082Z,23.77
2019-03-21T05:08:20.097Z,25.30
2019-03-21T05:10:59.171Z,22.90
2019-03-21T05:13:38.220Z,26.07
2019-03-21T05:16:17.249Z,30.50
2019-03-21T05:18:57.330Z,28.13
2019-03-21T05:21:36.511Z,27.30
2019-03-21T05:24:15.591Z,26.13
2019-03-21T05:26:54.626Z,23.07
2019-03-21T05:29:33.941Z,28.70
2019-03-21T05:32:12.962Z,23.07
2019-03-21T05:34:52.004Z,21.33
2019-03-21T05:37:31.053Z,21.23
2019-03-21T05:40:12.635Z,27.00
2019-03-21T05:43:00.969Z,20.57
2019-03-21T05:45:40.028Z,23.83
2019-03-21T05:51:03.699Z,22.53
2019-03-21T05:53:42.707Z,23.47
2019-03-21T05:56:21.785Z,23.70
2019-03-21T05:59:00.840Z,19.93
2019-03-21T06:01:39.894Z,22.67
2019-03-21T06:04:18.953Z,24.00
2019-03-21T06:07:22.880Z,24.47
2019-03-21T06:10:01.923Z,26.17
2019-03-21T06:12:42.810Z,26.13
2019-03-21T06:15:26.777Z,24.53
2019-03-21T06:19:12.788Z,27.53
2019-03-21T06:22:54.630Z,21.57
2019-03-21T06:26:08.913Z,27.23
2019-03-21T06:28:47.967Z,23.23
2019-03-21T06:31:27.030Z,20.17
2019-03-21T06:34:06.053Z,17.97
2019-03-21T06:36:45.119Z,21.67
2019-03-21T06:39:24.176Z,23.23
2019-03-21T06:42:03.232Z,21.17
2019-03-21T06:44:42.290Z,22.30
2019-03-21T06:47:21.314Z,24.27
2019-03-21T06:50:00.456Z,25.57
2019-03-21T06:52:39.417Z,26.00
2019-03-21T06:55:18.455Z,21.97
2019-03-21T06:57:57.641Z,22.57
2019-03-21T07:00:36.703Z,23.87
2019-03-21T07:03:16.544Z,22.40
2019-03-21T07:05:54.807Z,24.23
2019-03-21T07:08:33.820Z,25.13
2019-03-21T07:11:12.879Z,22.03
2019-03-21T07:13:51.899Z,21.30
2019-03-21T07:16:30.967Z,26.70
2019-03-21T07:19:09.995Z,27.07
2019-03-21T07:21:49.125Z,21.43
2019-03-21T07:24:28.083Z,24.13
2019-03-21T07:27:07.354Z,28.70
2019-03-21T07:29:46.414Z,22.33
2019-03-21T07:32:33.269Z,24.40
2019-03-21T07:35:04.680Z,26.00
2019-03-21T07:37:43.716Z,25.17
2019-03-21T07:40:22.766Z,24.17
2019-03-21T07:43:01.796Z,25.47
2019-03-21T07:45:40.841Z,29.80
2019-03-21T07:48:19.862Z,29.70
2019-03-21T07:50:58.913Z,25.07
2019-03-21T07:53:37.951Z,23.83
2019-03-21T07:56:17.036Z,28.87
2019-03-21T08:01:39.549Z,28.80
2019-03-21T08:04:18.532Z,28.27
2019-03-21T08:06:57.639Z,30.73
2019-03-21T08:09:36.723Z,27.67
2019-03-21T08:12:15.851Z,30.13
2019-03-21T08:14:54.857Z,24.73
2019-03-21T08:17:33.908Z,25.50
2019-03-21T08:20:13.406Z,28.30
2019-03-21T08:22:52.498Z,27.23
2019-03-21T08:25:31.560Z,27.00
2019-03-21T08:28:10.605Z,23.80
2019-03-21T08:34:09.003Z,24.53
2019-03-21T08:36:48.034Z,22.10
2019-03-21T08:39:27.037Z,21.27
2019-03-21T08:42:06.078Z,22.23
2019-03-21T08:44:45.091Z,26.87
2019-03-21T08:50:08.149Z,24.30
2019-03-21T08:52:47.192Z,26.27
2019-03-21T08:55:26.193Z,24.80
2019-03-21T08:58:05.235Z,24.00
2019-03-21T09:00:44.268Z,27.13
2019-03-21T09:03:23.297Z,26.33
2019-03-21T09:06:02.344Z,25.47
2019-03-21T09:08:41.447Z,32.70
2019-03-21T09:11:20.454Z,22.63
2019-03-21T09:14:02.524Z,26.00
2019-03-21T09:16:41.565Z,28.70
2019-03-21T09:22:05.499Z,25.20
2019-03-21T09:24:44.504Z,30.63
2019-03-21T09:27:23.571Z,32.47
2019-03-21T09:30:02.584Z,30.40
2019-03-21T09:32:41.644Z,27.37
2019-03-21T09:35:23.248Z,27.27
2019-03-21T09:38:04.830Z,29.97
2019-03-21T09:40:43.840Z,25.70
2019-03-21T09:43:23.017Z,27.07
2019-03-21T09:46:02.036Z,27.37
2019-03-21T09:48:41.080Z,26.70
2019-03-21T09:51:30.631Z,30.27
2019-03-21T09:54:09.313Z,32.40
2019-03-21T09:56:38.231Z,32.07
2019-03-21T09:59:17.228Z,32.87
2019-03-21T10:01:56.308Z,30.20
2019-03-21T10:04:35.323Z,30.57
2019-03-21T10:07:14.383Z,27.30
2019-03-21T10:09:53.412Z,30.47
2019-03-21T10:12:32.446Z,27.70
2019-03-21T10:15:11.520Z,27.60
2019-03-21T10:17:50.575Z,26.93
2019-03-21T10:20:29.591Z,30.20
2019-03-21T10:23:08.620Z,31.50
2019-03-21T10:25:47.632Z,26.77
2019-03-21T10:28:26.720Z,28.70
2019-03-21T10:31:05.747Z,31.27
2019-03-21T10:33:44.794Z,29.37
2019-03-21T10:36:23.825Z,30.73
2019-03-21T10:39:02.863Z,26.37
2019-03-21T10:41:41.896Z,27.27
2019-03-21T10:44:20.980Z,27.23
2019-03-21T10:47:00.013Z,28.73
2019-03-21T10:49:39.048Z,27.80
2019-03-21T10:52:18.109Z,33.63
2019-03-21T10:54:57.143Z,33.53
2019-03-21T10:57:36.259Z,34.60
2019-03-21T11:00:15.273Z,35.17
2019-03-21T11:02:54.298Z,30.57
2019-03-21T11:05:33.402Z,33.10
2019-03-21T11:08:12.464Z,33.77
2019-03-21T11:10:51.488Z,31.47
2019-03-21T11:13:30.544Z,32.90
2019-03-21T11:16:09.556Z,34.80
2019-03-21T11:18:48.610Z,33.60
2019-03-21T11:21:27.621Z,28.90
2019-03-21T11:24:06.694Z,36.70
2019-03-21T11:26:45.736Z,29.20
2019-03-21T11:29:24.796Z,27.93
2019-03-21T11:32:03.839Z,33.43
2019-03-21T11:34:42.873Z,32.80
2019-03-21T11:37:21.907Z,31.33
2019-03-21T11:40:00.947Z,31.97
2019-03-21T11:42:39.953Z,33.27
2019-03-21T11:45:19.010Z,27.63
2019-03-21T11:50:41.468Z,29.67
2019-03-21T11:53:20.485Z,28.93
2019-03-21T11:55:59.506Z,31.90
2019-03-21T11:58:38.514Z,26.43
2019-03-21T12:01:17.568Z,34.80
2019-03-21T12:03:56.572Z,30.67
2019-03-21T12:06:35.634Z,32.77
2019-03-21T12:09:14.689Z,32.77
2019-03-21T12:11:53.752Z,29.87
2019-03-21T12:14:32.830Z,30.50
2019-03-21T12:17:12.934Z,26.60
2019-03-21T12:22:35.772Z,27.97
2019-03-21T12:25:14.839Z,27.67
2019-03-21T12:27:53.839Z,30.77
2019-03-21T12:30:38.904Z,28.17
2019-03-21T12:33:17.918Z,31.53
2019-03-21T12:35:56.950Z,27.47
2019-03-21T12:38:35.974Z,24.63
2019-03-21T12:41:15.031Z,23.97
2019-03-21T12:43:54.060Z,26.43
2019-03-21T12:46:33.128Z,26.87
2019-03-21T12:49:12.127Z,28.53
2019-03-21T12:51:51.168Z,26.67
2019-03-21T12:54:30.237Z,26.10
2019-03-21T12:57:09.310Z,27.37
2019-03-21T12:59:48.311Z,27.17
2019-03-21T13:02:32.278Z,24.07
2019-03-21T13:05:07.484Z,24.47
2019-03-21T13:07:46.540Z,23.67
2019-03-21T13:10:25.565Z,24.27
2019-03-21T13:13:04.616Z,22.30
2019-03-21T13:15:43.621Z,24.93
2019-03-21T13:18:22.675Z,27.33
2019-03-21T13:21:01.696Z,22.80
2019-03-21T13:23:40.725Z,24.97
2019-03-21T13:26:19.742Z,28.27
2019-03-21T13:28:58.770Z,24.97
2019-03-21T13:31:38.745Z,22.73
2019-03-21T13:34:16.820Z,23.17
2019-03-21T13:36:55.886Z,26.03
2019-03-21T13:39:34.965Z,21.83
2019-03-21T13:42:14.006Z,23.63
2019-03-21T13:44:53.068Z,26.33
2019-03-21T13:47:32.090Z,28.10
2019-03-21T13:50:11.236Z,20.00
2019-03-21T13:52:50.303Z,23.87
2019-03-21T13:55:29.337Z,21.00
2019-03-21T13:58:08.422Z,24.53
2019-03-21T14:00:47.416Z,23.27
2019-03-21T14:03:26.448Z,19.95
2019-03-21T14:06:05.508Z,20.33
2019-03-21T14:08:44.544Z,22.77
2019-03-21T14:11:23.566Z,19.70
2019-03-21T14:14:02.607Z,21.40
2019-03-21T14:16:41.632Z,21.63
2019-03-21T14:19:20.669Z,21.57
2019-03-21T14:21:59.742Z,21.63
2019-03-21T14:24:38.766Z,21.53
2019-03-21T14:27:17.801Z,21.03
2019-03-21T14:30:01.449Z,18.20
2019-03-21T14:32:35.964Z,22.37
2019-03-21T14:35:15.020Z,19.87
2019-03-21T14:37:54.121Z,17.63
2019-03-21T14:40:33.154Z,19.83
2019-03-21T14:43:12.189Z,21.40
2019-03-21T14:48:39.730Z,19.03
2019-03-21T14:54:05.105Z,20.90
2019-03-21T14:56:44.142Z,21.07
2019-03-21T14:59:23.181Z,20.37
2019-03-21T15:02:02.229Z,21.23
2019-03-21T15:04:41.248Z,20.47
2019-03-21T15:07:20.250Z,19.33
2019-03-21T15:09:59.296Z,22.90
2019-03-21T15:12:38.337Z,20.10
2019-03-21T15:15:17.535Z,22.40
2019-03-21T15:17:58.696Z,19.30
2019-03-21T15:20:35.691Z,21.73
2019-03-21T15:23:14.760Z,20.90
2019-03-21T15:25:53.949Z,22.90
2019-03-21T15:28:32.879Z,20.33
2019-03-21T15:31:11.901Z,20.17
2019-03-21T15:33:50.958Z,22.23
2019-03-21T15:36:30.011Z,23.33
2019-03-21T15:39:10.911Z,18.97
2019-03-21T15:41:49.956Z,19.87
2019-03-21T15:44:29.007Z,20.50
2019-03-21T15:47:08.078Z,18.70
2019-03-21T15:49:48.426Z,16.57
2019-03-21T15:52:27.959Z,17.03
2019-03-21T15:55:07.476Z,19.70
2019-03-21T15:57:46.565Z,18.47
2019-03-21T16:00:33.713Z,19.10
2019-03-21T16:03:12.825Z,20.33
2019-03-21T16:05:51.878Z,19.30
2019-03-21T16:08:30.989Z,18.73
2019-03-21T16:11:10.013Z,18.93
2019-03-21T16:13:49.072Z,18.87
2019-03-21T16:16:28.104Z,20.68
2019-03-21T16:19:07.192Z,19.07
2019-03-21T16:21:46.262Z,18.63
2019-03-21T16:24:25.349Z,20.10
2019-03-21T16:27:04.400Z,20.27
2019-03-21T16:29:43.489Z,21.17
2019-03-21T16:32:22.525Z,19.03
2019-03-21T16:35:01.575Z,21.53
2019-03-21T16:37:40.719Z,18.70
2019-03-21T16:43:10.322Z,18.00
2019-03-21T16:45:49.393Z,18.77
2019-03-21T16:48:28.425Z,18.50
2019-03-21T16:51:07.467Z,19.30
2019-03-21T16:53:46.515Z,17.00
2019-03-21T16:56:25.635Z,22.30
2019-03-21T16:59:04.727Z,21.37
2019-03-21T17:01:43.955Z,18.97
2019-03-21T17:04:23.000Z,19.43
2019-03-21T17:07:02.085Z,21.53
2019-03-21T17:09:41.127Z,18.53
2019-03-21T17:12:22.732Z,19.23
2019-03-21T17:15:01.812Z,19.87
2019-03-21T17:17:40.779Z,23.03
2019-03-21T17:23:11.352Z,22.13
2019-03-21T17:25:50.341Z,22.23
2019-03-21T17:28:29.395Z,21.93
2019-03-21T17:31:08.462Z,22.67
2019-03-21T17:33:47.577Z,21.10
2019-03-21T17:36:26.678Z,22.53
2019-03-21T17:39:05.829Z,21.37
2019-03-21T17:41:44.860Z,27.27
2019-03-21T17:44:26.552Z,24.23
2019-03-21T17:47:05.808Z,20.80
2019-03-21T17:49:44.907Z,25.90
2019-03-21T17:52:23.946Z,27.43
2019-03-21T17:55:03.007Z,27.20
2019-03-21T17:57:43.399Z,22.80
2019-03-21T18:00:23.843Z,31.37
2019-03-21T18:05:48.663Z,30.83
2019-03-21T18:08:27.713Z,40.17
2019-03-21T18:11:06.755Z,68.50
2019-03-21T18:13:45.809Z,71.73
2019-03-21T18:16:24.831Z,49.60
2019-03-21T18:19:03.832Z,42.80
2019-03-21T18:21:42.878Z,38.77
2019-03-21T18:24:21.873Z,35.27
2019-03-21T18:27:00.896Z,38.23
2019-03-21T18:29:39.906Z,31.30
2019-03-21T18:32:18.949Z,31.43
2019-03-21T18:34:57.962Z,34.87
2019-03-21T18:37:37.004Z,35.43
2019-03-21T18:40:16.057Z,36.23
2019-03-21T18:42:55.194Z,35.20
2019-03-21T18:45:34.138Z,34.93
2019-03-21T18:48:13.184Z,45.70
2019-03-21T18:50:52.197Z,35.67
2019-03-21T18:53:31.232Z,34.60
2019-03-21T18:56:10.279Z,35.43
2019-03-21T18:58:49.320Z,36.47
2019-03-21T19:01:28.343Z,31.43
2019-03-21T19:04:07.424Z,30.07
2019-03-21T19:06:46.471Z,30.83
2019-03-21T19:09:25.498Z,30.23
2019-03-21T19:12:04.546Z,34.10
2019-03-21T19:14:43.559Z,32.80
2019-03-21T19:17:22.578Z,31.80
2019-03-21T19:20:01.593Z,32.67
2019-03-21T19:22:40.634Z,31.87
2019-03-21T19:25:19.961Z,48.03
2019-03-21T19:27:58.704Z,41.00
2019-03-21T19:30:37.731Z,34.73
2019-03-21T19:33:18.450Z,32.23
2019-03-21T19:35:58.084Z,30.73
2019-03-21T19:38:38.289Z,33.90
2019-03-21T19:41:18.457Z,33.17
2019-03-21T19:43:58.402Z,34.83
2019-03-21T19:46:38.492Z,35.70
2019-03-21T19:49:19.317Z,41.37
2019-03-21T19:51:59.102Z,34.13
2019-03-21T19:54:39.264Z,33.73
2019-03-21T19:57:19.207Z,34.83
2019-03-21T20:02:47.668Z,35.00
2019-03-21T20:05:27.901Z,36.27
2019-03-21T20:08:07.957Z,34.20
2019-03-21T20:10:47.961Z,30.27
2019-03-21T20:13:27.890Z,27.70
2019-03-21T20:16:07.831Z,27.57
2019-03-21T20:18:48.949Z,32.73
2019-03-21T20:21:28.844Z,30.17
2019-03-21T20:24:08.226Z,32.93
2019-03-21T20:26:48.019Z,28.93
2019-03-21T20:29:28.018Z,32.93
2019-03-21T20:32:07.428Z,32.37
2019-03-21T20:34:47.605Z,35.30
2019-03-21T20:37:27.524Z,37.33
2019-03-21T20:40:07.653Z,39.87
2019-03-21T20:42:47.041Z,41.90
2019-03-21T20:45:26.338Z,34.33
2019-03-21T20:50:50.247Z,38.27
2019-03-21T20:53:30.890Z,39.03
2019-03-21T20:56:10.946Z,46.33
2019-03-21T20:58:50.703Z,50.47
2019-03-21T21:01:30.430Z,45.93
2019-03-21T21:04:09.959Z,45.30
2019-03-21T21:06:49.790Z,38.23
2019-03-21T21:09:28.843Z,40.30
2019-03-21T21:12:07.860Z,35.83
2019-03-21T21:14:46.886Z,43.10
2019-03-21T21:17:25.901Z,35.43
2019-03-21T21:20:05.040Z,40.17
2019-03-21T21:22:44.059Z,39.10
2019-03-21T21:25:23.115Z,34.77
2019-03-21T21:28:02.126Z,41.93
2019-03-21T21:30:41.159Z,38.67
2019-03-21T21:33:20.190Z,34.17
2019-03-21T21:35:59.250Z,39.50
2019-03-21T21:41:21.846Z,36.43
2019-03-21T21:44:00.864Z,31.37
2019-03-21T21:46:39.885Z,34.07
2019-03-21T21:49:18.892Z,35.70
2019-03-21T21:51:57.946Z,32.33
2019-03-21T21:54:37.006Z,39.07
2019-03-21T21:57:16.033Z,36.43
2019-03-21T21:59:55.079Z,30.10
2019-03-21T22:02:34.111Z,33.93
2019-03-21T22:05:13.194Z,32.83
2019-03-21T22:07:52.216Z,34.63
2019-03-21T22:10:31.271Z,34.27
2019-03-21T22:13:10.287Z,39.27
2019-03-21T22:15:49.319Z,34.43
2019-03-21T22:18:28.337Z,35.90
2019-03-21T22:21:07.389Z,36.67
2019-03-21T22:23:46.407Z,32.60
2019-03-21T22:26:29.896Z,35.93
2019-03-21T22:29:04.471Z,36.23
2019-03-21T22:31:43.574Z,41.50
2019-03-21T22:34:22.543Z,40.63
2019-03-21T22:37:01.602Z,46.67
2019-03-21T22:39:40.618Z,47.93
2019-03-21T22:42:19.661Z,46.93
2019-03-21T22:44:58.708Z,52.53
2019-03-21T22:47:37.765Z,49.67
2019-03-21T22:50:17.702Z,47.50
2019-03-21T22:52:56.779Z,47.43
2019-03-21T22:55:35.777Z,47.63
2019-03-21T22:58:14.875Z,45.57
2019-03-21T23:00:53.886Z,42.90
2019-03-21T23:03:32.931Z,41.47
2019-03-21T23:06:11.950Z,41.47
2019-03-21T23:08:50.984Z,42.87
2019-03-21T23:11:30.011Z,45.47
2019-03-21T23:14:09.049Z,47.50
2019-03-21T23:16:48.093Z,44.13
2019-03-21T23:19:27.124Z,45.07
2019-03-21T23:22:06.164Z,39.77
2019-03-21T23:24:45.193Z,41.43
2019-03-21T23:27:24.250Z,39.10
2019-03-21T23:30:03.268Z,43.07
2019-03-21T23:32:42.302Z,38.53
2019-03-21T23:35:21.313Z,40.03
2019-03-21T23:38:00.333Z,40.67
2019-03-21T23:40:39.346Z,40.57
2019-03-21T23:43:18.386Z,40.27
2019-03-21T23:45:57.398Z,41.17
2019-03-21T23:48:36.457Z,40.60
2019-03-21T23:51:15.478Z,44.07
2019-03-21T23:53:54.529Z,39.03
2019-03-21T23:56:33.565Z,42.03
2019-03-21T23:59:12.635Z,43.03
